Time;durP1;ratioP1;P1;durP2;ratioP2;P2;SDS_P1;SDS_P2;PMS_P1;PMS_P2;Temp;Humidity;BMP_temperature;BMP_pressure;BME280_temperature;BME280_humidity;BME280_pressure;Samples;Min_cycle;Max_cycle;Signal;HPM_P1;HPM_P2
2022/06/21 00:01:58;;;;;;;2.00;1.90;;;22.90;43.30;;;;;;20402;6881;329126;31
2022/06/21 00:04:24;;;;;;;1.80;1.70;;;23.00;42.80;;;;;;20624;6881;118300;31
2022/06/21 00:06:50;;;;;;;1.95;1.65;;;22.60;43.40;;;;;;20629;6882;117227;31
2022/06/21 00:09:16;;;;;;;1.70;1.60;;;22.20;44.20;;;;;;20389;6882;311939;31
2022/06/21 00:11:42;;;;;;;1.87;1.77;;;22.30;44.40;;;;;;20621;6882;117351;31
2022/06/21 00:14:07;;;;;;;1.83;1.73;;;22.10;44.60;;;;;;20407;6881;309717;31
2022/06/21 00:16:33;;;;;;;1.87;1.67;;;22.20;44.50;;;;;;20416;6881;311100;31
2022/06/21 00:19:00;;;;;;;1.80;1.70;;;22.40;44.10;;;;;;20409;6881;309244;31
2022/06/21 00:21:25;;;;;;;1.70;1.60;;;22.60;43.40;;;;;;20606;6881;118394;31
2022/06/21 00:23:51;;;;;;;1.97;1.30;;;22.30;43.70;;;;;;20533;6881;117752;31
2022/06/21 00:26:16;;;;;;;1.83;1.50;;;21.90;44.40;;;;;;20653;6881;118204;31
2022/06/21 00:28:42;;;;;;;2.70;1.62;;;21.60;45.10;;;;;;20412;6881;309555;31
2022/06/21 00:31:21;;;;;;;1.60;1.50;;;21.70;44.60;;;;;;20620;6881;117681;31
2022/06/21 00:33:46;;;;;;;1.90;1.80;;;21.50;44.60;;;;;;20301;6881;310622;31
2022/06/21 00:36:12;;;;;;;1.60;1.50;;;21.60;44.40;;;;;;20619;6881;117817;31
2022/06/21 00:38:40;;;;;;;1.48;1.48;;;21.40;44.70;;;;;;20394;6881;311970;31
2022/06/21 00:41:05;;;;;;;2.23;1.30;;;21.60;44.90;;;;;;20621;6879;118988;31
2022/06/21 00:43:31;;;;;;;1.80;1.50;;;21.40;45.00;;;;;;20406;6880;311308;31
2022/06/21 00:45:56;;;;;;;1.77;1.67;;;21.50;44.30;;;;;;20413;6880;281010;31
2022/06/21 00:48:22;;;;;;;2.10;1.90;;;21.70;43.90;;;;;;20416;6880;341342;31
2022/06/21 00:50:51;;;;;;;1.60;1.50;;;21.80;43.70;;;;;;20619;6880;118088;31
2022/06/21 00:53:36;;;;;;;1.30;1.20;;;21.60;44.20;;;;;;20640;6880;118581;31
2022/06/21 00:56:08;;;;;;;2.27;1.43;;;21.10;44.80;;;;;;20689;6880;116714;31
2022/06/21 00:58:34;;;;;;;2.27;1.60;;;20.80;45.30;;;;;;20415;6880;119223;31
2022/06/21 01:01:01;;;;;;;1.50;1.40;;;20.50;45.70;;;;;;20629;6881;117102;31
2022/06/21 01:03:25;;;;;;;1.27;1.27;;;20.30;45.80;;;;;;20596;6881;118802;31
2022/06/21 01:05:51;;;;;;;1.70;1.60;;;20.10;45.90;;;;;;20613;6881;118757;31
2022/06/21 01:08:20;;;;;;;1.30;1.27;;;19.90;46.10;;;;;;20620;6881;117767;31
2022/06/21 01:10:45;;;;;;;1.53;1.27;;;19.80;46.40;;;;;;20597;6881;117977;31
2022/06/21 01:13:11;;;;;;;1.53;1.13;;;19.70;46.60;;;;;;20587;6881;119146;31
2022/06/21 01:15:36;;;;;;;2.07;1.40;;;19.60;46.80;;;;;;20608;6881;119365;31
2022/06/21 01:18:02;;;;;;;2.03;1.30;;;19.60;47.10;;;;;;20405;6881;279365;31
2022/06/21 01:20:27;;;;;;;1.47;1.37;;;19.90;46.30;;;;;;20619;6881;116521;31
2022/06/21 01:22:53;;;;;;;2.15;1.30;;;20.00;46.20;;;;;;20619;6881;117961;31
2022/06/21 01:25:39;;;;;;;1.70;1.23;;;19.90;46.30;;;;;;20360;6881;279970;31
2022/06/21 01:28:04;;;;;;;3.40;1.43;;;20.20;45.60;;;;;;20656;6881;118115;31
2022/06/21 01:30:30;;;;;;;1.52;1.35;;;20.30;45.40;;;;;;20451;6881;333623;31
2022/06/21 01:32:55;;;;;;;1.97;1.40;;;20.50;44.60;;;;;;20428;6881;310950;31
2022/06/21 01:35:28;;;;;;;1.33;1.10;;;20.70;43.80;;;;;;20600;6881;122515;31
2022/06/21 01:37:54;;;;;;;1.60;1.50;;;20.60;44.20;;;;;;20416;6881;309330;31
2022/06/21 01:40:25;;;;;;;1.40;1.30;;;20.70;43.80;;;;;;20448;6881;309966;31
2022/06/21 01:42:49;;;;;;;1.30;1.20;;;20.80;43.20;;;;;;20417;6881;282230;31
2022/06/21 01:45:24;;;;;;;1.50;1.40;;;21.00;43.60;;;;;;20603;6881;119007;31
2022/06/21 01:47:50;;;;;;;2.10;1.33;;;20.70;43.60;;;;;;20401;6881;309560;31
2022/06/21 01:50:15;;;;;;;1.48;1.37;;;20.70;43.30;;;;;;20613;6881;116254;31
2022/06/21 01:52:41;;;;;;;1.60;1.33;;;20.50;43.90;;;;;;20624;6879;117201;31
2022/06/21 01:55:06;;;;;;;1.50;1.40;;;20.20;44.30;;;;;;20388;6880;309312;31
2022/06/21 01:57:32;;;;;;;1.43;1.33;;;20.30;44.10;;;;;;20594;6880;117731;31
2022/06/21 01:59:58;;;;;;;1.23;1.10;;;20.10;44.10;;;;;;20628;6880;117209;31
2022/06/21 02:02:25;;;;;;;1.40;1.30;;;19.90;44.60;;;;;;20417;6880;293117;31
2022/06/21 02:04:50;;;;;;;3.23;1.40;;;20.00;44.50;;;;;;20613;6880;117289;31
2022/06/21 02:07:18;;;;;;;1.80;1.70;;;19.90;44.50;;;;;;20386;6880;312195;31
2022/06/21 02:09:48;;;;;;;2.63;1.50;;;20.00;43.60;;;;;;20616;6880;119168;31
2022/06/21 02:12:14;;;;;;;1.37;1.27;;;19.90;44.70;;;;;;20612;6881;117253;31
2022/06/21 02:14:39;;;;;;;1.53;1.20;;;19.60;44.50;;;;;;20415;6881;308707;31
2022/06/21 02:17:08;;;;;;;2.17;1.10;;;19.80;44.30;;;;;;20614;6881;119005;31
2022/06/21 02:19:38;;;;;;;1.50;1.40;;;19.70;44.50;;;;;;20397;6881;327219;31
2022/06/21 02:22:05;;;;;;;1.30;1.25;;;19.90;44.10;;;;;;20396;6881;309604;31
2022/06/21 02:24:30;;;;;;;2.50;1.30;;;20.10;43.50;;;;;;20620;6881;121196;31
2022/06/21 02:26:56;;;;;;;1.30;1.20;;;20.00;43.90;;;;;;20621;6881;117231;31
2022/06/21 02:29:22;;;;;;;1.30;1.20;;;19.70;44.50;;;;;;20598;6881;118434;31
2022/06/21 02:31:48;;;;;;;1.50;1.40;;;19.40;44.90;;;;;;20650;6881;117545;31
2022/06/21 02:34:20;;;;;;;1.43;1.33;;;19.20;45.20;;;;;;20411;6881;311181;31
2022/06/21 02:36:52;;;;;;;2.67;1.30;;;19.50;45.20;;;;;;20607;6881;119078;31
2022/06/21 02:39:18;;;;;;;2.50;1.43;;;19.50;45.20;;;;;;20389;6881;279764;31
2022/06/21 02:41:43;;;;;;;1.57;1.47;;;19.80;44.90;;;;;;20623;6881;120641;31
2022/06/21 02:44:12;;;;;;;1.30;1.20;;;19.80;45.00;;;;;;20616;6881;117689;31
2022/06/21 02:46:38;;;;;;;1.50;1.40;;;19.60;45.30;;;;;;20390;6881;309566;31
2022/06/21 02:49:03;;;;;;;1.42;1.25;;;19.80;44.80;;;;;;20616;6881;120699;31
2022/06/21 02:51:32;;;;;;;1.87;1.23;;;19.80;45.00;;;;;;20208;6881;309954;31
2022/06/21 02:54:07;;;;;;;1.30;1.20;;;20.00;44.20;;;;;;20625;6881;118319;31
2022/06/21 02:56:33;;;;;;;1.40;1.30;;;20.00;44.40;;;;;;20622;6881;117600;31
2022/06/21 02:58:58;;;;;;;2.07;1.40;;;19.70;44.80;;;;;;20401;6881;311929;31
2022/06/21 03:01:24;;;;;;;1.50;1.40;;;20.00;44.10;;;;;;20389;6881;283890;31
2022/06/21 03:03:49;;;;;;;1.60;1.30;;;20.30;43.60;;;;;;20408;6879;279263;31
2022/06/21 03:06:15;;;;;;;1.17;1.15;;;20.50;43.30;;;;;;20409;6880;308916;31
2022/06/21 03:08:48;;;;;;;1.52;1.40;;;20.70;43.10;;;;;;20618;6880;117000;31
2022/06/21 03:11:13;;;;;;;1.62;1.20;;;20.50;43.30;;;;;;20350;6880;341777;31
2022/06/21 03:13:39;;;;;;;1.40;1.40;;;20.50;42.40;;;;;;20618;6880;117764;31
2022/06/21 03:16:11;;;;;;;2.73;1.47;;;20.30;42.80;;;;;;20419;6880;280454;31
2022/06/21 03:18:36;;;;;;;1.35;1.25;;;20.40;42.00;;;;;;20380;6880;324021;31
2022/06/21 03:21:03;;;;;;;2.90;1.60;;;20.60;41.40;;;;;;20405;6880;282264;31
2022/06/21 03:23:28;;;;;;;1.57;1.47;;;20.70;41.00;;;;;;20396;6881;279480;31
2022/06/21 03:25:53;;;;;;;2.10;1.60;;;20.80;40.80;;;;;;20410;6881;284264;31
2022/06/21 03:28:25;;;;;;;1.33;1.30;;;20.80;40.80;;;;;;20608;6881;117092;31
2022/06/21 03:31:14;;;;;;;2.43;1.30;;;20.50;41.60;;;;;;20626;6881;117669;31
2022/06/21 03:33:40;;;;;;;3.03;1.70;;;20.00;42.50;;;;;;20423;6881;279989;31
2022/06/21 03:36:07;;;;;;;1.60;1.50;;;20.10;42.60;;;;;;20631;6881;117559;31
2022/06/21 03:38:32;;;;;;;1.60;1.50;;;19.90;42.80;;;;;;20667;6881;116356;31
2022/06/21 03:43:43;;;;;;;4.13;1.33;;;19.50;44.00;;;;;;20428;6881;301272;31
2022/06/21 03:46:08;;;;;;;1.52;1.40;;;19.80;45.30;;;;;;20434;6881;308238;31
2022/06/21 03:48:37;;;;;;;1.97;1.77;;;20.40;44.10;;;;;;20682;6881;116993;31
2022/06/21 03:51:05;;;;;;;1.37;1.10;;;20.50;43.90;;;;;;20671;6881;117406;31
2022/06/21 03:53:31;;;;;;;1.43;1.33;;;20.40;44.30;;;;;;20606;6881;118714;31
2022/06/21 03:56:03;;;;;;;1.33;1.33;;;20.40;44.50;;;;;;20630;6881;117546;31
2022/06/21 03:58:42;;;;;;;2.37;1.60;;;20.40;44.50;;;;;;20406;6881;310018;31
2022/06/21 04:01:14;;;;;;;1.60;1.50;;;20.70;44.50;;;;;;20634;6881;116639;31
2022/06/21 04:04:19;;;;;;;1.50;1.40;;;20.80;44.10;;;;;;20295;6881;311486;31
2022/06/21 04:06:45;;;;;;;1.50;1.40;;;21.10;43.30;;;;;;20630;6881;118089;31
2022/06/21 04:09:27;;;;;;;1.40;1.30;;;21.10;43.50;;;;;;20392;6881;279296;31
2022/06/21 04:12:06;;;;;;;1.70;1.30;;;21.30;43.20;;;;;;20408;6881;309336;31
2022/06/21 04:14:44;;;;;;;1.67;1.30;;;21.90;42.30;;;;;;20147;6881;309888;31
2022/06/21 04:17:13;;;;;;;1.87;1.60;;;22.10;41.50;;;;;;20392;6880;309179;31
2022/06/21 04:19:45;;;;;;;1.33;1.23;;;22.40;40.80;;;;;;20606;6880;117461;31
2022/06/21 04:22:23;;;;;;;1.60;1.50;;;22.10;41.10;;;;;;20628;6880;117113;31
2022/06/21 04:24:51;;;;;;;1.50;1.40;;;21.80;41.80;;;;;;20420;6880;304869;31
2022/06/21 04:27:24;;;;;;;1.50;1.40;;;21.90;42.00;;;;;;20602;6880;119881;31
2022/06/21 04:29:49;;;;;;;1.73;1.62;;;21.90;41.90;;;;;;20406;6880;337072;31
2022/06/21 04:32:39;;;;;;;1.97;1.40;;;22.10;42.00;;;;;;20627;6880;117575;31
2022/06/21 04:35:04;;;;;;;2.13;1.70;;;22.10;41.30;;;;;;20440;6881;280023;31
2022/06/21 04:37:33;;;;;;;1.60;1.50;;;22.40;40.80;;;;;;20429;6881;279820;31
2022/06/21 04:40:05;;;;;;;2.40;1.53;;;22.70;40.80;;;;;;20595;6881;117012;31
2022/06/21 04:42:51;;;;;;;2.50;1.30;;;22.60;40.90;;;;;;20602;6881;118696;31
2022/06/21 04:45:29;;;;;;;1.40;1.37;;;22.40;41.30;;;;;;20636;6881;117175;31
2022/06/21 04:48:34;;;;;;;1.60;1.50;;;22.20;41.80;;;;;;20410;6881;310285;31
2022/06/21 04:51:00;;;;;;;1.70;1.60;;;22.50;41.30;;;;;;20426;6881;279026;31
2022/06/21 04:53:26;;;;;;;2.03;1.60;;;23.00;40.80;;;;;;20397;6881;338516;31
2022/06/21 04:56:01;;;;;;;1.43;1.40;;;23.40;40.40;;;;;;20581;6881;117322;31
2022/06/21 04:58:27;;;;;;;2.00;1.40;;;23.40;40.60;;;;;;20621;6881;117966;31
2022/06/21 05:00:52;;;;;;;2.30;1.50;;;23.20;41.00;;;;;;20627;6881;117080;31
2022/06/21 05:03:27;;;;;;;2.07;1.17;;;22.90;41.30;;;;;;20616;6881;117139;31
2022/06/21 05:05:53;;;;;;;1.47;1.37;;;22.80;41.70;;;;;;20604;6881;117437;31
2022/06/21 05:08:19;;;;;;;1.40;1.30;;;22.70;42.10;;;;;;20418;6881;338829;31
2022/06/21 05:10:44;;;;;;;1.60;1.50;;;23.10;41.60;;;;;;20622;6881;117986;31
2022/06/21 05:13:10;;;;;;;1.30;1.20;;;23.30;41.60;;;;;;20386;6881;309260;31
2022/06/21 05:15:35;;;;;;;1.30;1.20;;;23.60;41.10;;;;;;20615;6881;118463;31
2022/06/21 05:18:01;;;;;;;2.33;1.50;;;23.70;41.00;;;;;;20407;6881;280551;31
2022/06/21 05:20:26;;;;;;;1.33;1.23;;;23.90;40.60;;;;;;20603;6880;114435;31
2022/06/21 05:22:52;;;;;;;2.03;1.83;;;23.90;40.70;;;;;;20620;6881;117058;31
2022/06/21 05:25:34;;;;;;;2.20;1.90;;;23.70;40.80;;;;;;20597;6881;117606;31
2022/06/21 05:28:16;;;;;;;2.20;2.00;;;23.40;41.10;;;;;;20392;6879;309813;31
2022/06/21 05:30:44;;;;;;;4.05;2.20;;;23.60;41.10;;;;;;20365;6880;282859;31
2022/06/21 05:33:19;;;;;;;2.33;1.80;;;23.90;40.60;;;;;;20399;6880;308770;31
2022/06/21 05:35:45;;;;;;;2.05;1.67;;;24.10;40.30;;;;;;20404;6880;309079;31
2022/06/21 05:38:20;;;;;;;1.90;1.70;;;24.30;39.80;;;;;;20416;6880;309760;31
2022/06/21 05:40:55;;;;;;;2.20;1.93;;;24.50;39.50;;;;;;20624;6880;117091;31
2022/06/21 05:43:20;;;;;;;2.10;2.00;;;24.30;39.80;;;;;;20393;6880;290311;31
2022/06/21 05:45:52;;;;;;;2.97;1.93;;;24.30;39.40;;;;;;20610;6880;117686;31
2022/06/21 05:48:24;;;;;;;1.60;1.50;;;24.10;39.70;;;;;;20592;6881;118067;31
2022/06/21 05:50:49;;;;;;;1.47;1.37;;;23.80;40.40;;;;;;20391;6881;308891;31
2022/06/21 05:53:15;;;;;;;1.45;1.37;;;24.00;40.70;;;;;;20638;6881;118098;31
2022/06/21 05:55:40;;;;;;;1.33;1.30;;;24.00;40.80;;;;;;20535;6881;117414;31
2022/06/21 05:58:06;;;;;;;1.80;1.50;;;23.90;41.00;;;;;;20629;6881;117326;31
2022/06/21 06:00:35;;;;;;;1.60;1.50;;;23.90;41.30;;;;;;20411;6881;279879;31
2022/06/21 06:03:00;;;;;;;2.00;1.90;;;24.30;40.90;;;;;;20625;6881;119579;31
2022/06/21 06:05:26;;;;;;;1.90;1.80;;;24.40;40.60;;;;;;20420;6881;279417;31
2022/06/21 06:07:51;;;;;;;1.70;1.60;;;24.80;39.70;;;;;;20624;6877;117714;31
2022/06/21 06:10:17;;;;;;;2.10;1.90;;;25.00;40.00;;;;;;20629;6877;118025;31
2022/06/21 06:12:42;;;;;;;2.23;1.80;;;25.10;40.00;;;;;;20631;6877;117140;31
2022/06/21 06:15:14;;;;;;;2.67;2.10;;;25.50;39.90;;;;;;20407;6877;311481;31
2022/06/21 06:17:52;;;;;;;2.20;2.10;;;26.30;37.10;;;;;;20091;6885;280115;31
2022/06/21 06:20:38;;;;;;;1.80;1.70;;;27.20;35.90;;;;;;20621;6881;117956;31
2022/06/21 06:23:13;;;;;;;2.42;2.00;;;27.60;36.30;;;;;;20380;6890;330243;31
2022/06/21 06:25:50;;;;;;;2.00;1.90;;;28.10;33.70;;;;;;20381;6885;309321;31
2022/06/21 06:28:21;;;;;;;1.90;1.80;;;28.70;32.30;;;;;;20217;6877;309793;31
2022/06/21 06:30:47;;;;;;;2.55;2.10;;;29.10;31.60;;;;;;20416;6877;309703;31
2022/06/21 06:33:23;;;;;;;2.43;2.20;;;29.50;30.90;;;;;;20620;6877;118053;31
2022/06/21 06:35:48;;;;;;;1.90;1.80;;;29.30;31.70;;;;;;20637;6877;117946;31
2022/06/21 06:38:14;;;;;;;2.25;1.52;;;29.00;32.50;;;;;;20438;6874;282832;31
2022/06/21 06:40:40;;;;;;;1.57;1.47;;;29.00;31.60;;;;;;20426;6880;290320;31
2022/06/21 06:43:05;;;;;;;1.85;1.60;;;29.30;31.20;;;;;;20392;6885;280306;31
2022/06/21 06:45:30;;;;;;;2.07;1.80;;;29.80;30.70;;;;;;20578;6886;118578;31
2022/06/21 06:48:01;;;;;;;1.97;1.60;;;30.00;30.50;;;;;;20607;6886;117533;31
2022/06/21 06:50:25;;;;;;;2.33;1.98;;;29.70;30.40;;;;;;20391;6885;281791;31
2022/06/21 06:52:57;;;;;;;2.70;2.00;;;29.70;28.70;;;;;;20238;6885;280174;31
2022/06/21 06:55:32;;;;;;;1.90;1.73;;;30.00;28.40;;;;;;20375;6885;303800;31
2022/06/21 06:58:04;;;;;;;2.73;2.13;;;30.20;28.80;;;;;;20401;6885;282563;31
2022/06/21 07:00:29;;;;;;;2.33;1.62;;;30.40;28.40;;;;;;20404;6876;341346;31
2022/06/21 07:02:58;;;;;;;2.67;1.80;;;30.70;28.40;;;;;;20394;6876;309440;31
2022/06/21 07:05:31;;;;;;;1.43;1.33;;;31.10;27.50;;;;;;20626;6876;118507;31
2022/06/21 07:07:56;;;;;;;1.90;1.80;;;31.00;28.10;;;;;;20424;6876;310770;31
2022/06/21 07:10:21;;;;;;;1.80;1.70;;;31.20;27.50;;;;;;20401;6881;340280;31
2022/06/21 07:12:47;;;;;;;2.23;2.03;;;31.70;27.10;;;;;;20609;6876;117855;31
2022/06/21 07:15:13;;;;;;;2.20;1.98;;;31.70;27.30;;;;;;20388;6882;337849;31
2022/06/21 07:17:52;;;;;;;1.60;1.40;;;31.70;26.90;;;;;;20626;6882;117812;31
2022/06/21 07:20:20;;;;;;;2.67;1.80;;;31.60;27.40;;;;;;20385;6891;337399;31
2022/06/21 07:22:46;;;;;;;1.80;1.70;;;31.70;26.50;;;;;;20299;6891;304803;31
2022/06/21 07:25:31;;;;;;;1.73;1.63;;;31.70;26.60;;;;;;20620;6877;117563;31
2022/06/21 07:27:57;;;;;;;1.60;1.50;;;31.30;26.70;;;;;;20581;6891;117359;31
2022/06/21 07:30:22;;;;;;;2.37;1.50;;;30.60;27.10;;;;;;20632;6877;116975;31
2022/06/21 07:32:58;;;;;;;1.57;1.57;;;29.90;27.60;;;;;;20581;6891;117514;31
2022/06/21 07:35:24;;;;;;;1.73;1.62;;;29.50;28.00;;;;;;20401;6877;339779;31
2022/06/21 07:37:50;;;;;;;1.80;1.70;;;29.50;28.10;;;;;;20384;6891;280386;31
2022/06/21 07:40:16;;;;;;;1.83;1.67;;;29.60;27.90;;;;;;20606;6877;117042;31
2022/06/21 07:43:05;;;;;;;1.73;1.60;;;29.50;28.20;;;;;;20574;6884;120465;31
2022/06/21 07:45:31;;;;;;;2.00;1.90;;;29.10;28.60;;;;;;20595;6884;117147;31
2022/06/21 07:47:59;;;;;;;2.10;1.73;;;28.80;28.90;;;;;;20391;6884;282259;31
2022/06/21 07:50:28;;;;;;;1.70;1.50;;;28.90;29.10;;;;;;20395;6882;282643;31
2022/06/21 07:52:54;;;;;;;2.20;2.00;;;29.20;28.90;;;;;;20391;6883;309077;31
2022/06/21 07:55:38;;;;;;;1.70;1.60;;;29.40;28.30;;;;;;20365;6883;282060;31
2022/06/21 07:58:02;;;;;;;2.00;1.90;;;29.50;28.70;;;;;;19353;7230;352887;31
2022/06/21 08:06:40;;;;;;;3.67;2.03;;;29.50;28.60;;;;;;20517;6874;118782;31
2022/06/21 08:08:29;;;;;;;1.95;1.85;;;28.60;29.70;;;;;;20398;6884;283810;31
2022/06/21 08:10:55;;;;;;;1.90;1.80;;;28.70;29.90;;;;;;20579;6884;117831;31
2022/06/21 08:13:20;;;;;;;2.60;1.93;;;28.40;30.00;;;;;;20366;6884;310419;31
2022/06/21 08:15:46;;;;;;;2.10;2.00;;;28.40;30.20;;;;;;20441;6884;310182;31
2022/06/21 08:18:21;;;;;;;4.00;1.93;;;28.40;30.00;;;;;;20580;6884;117699;31
2022/06/21 08:20:50;;;;;;;2.10;1.90;;;28.00;30.10;;;;;;20451;6884;279388;31
2022/06/21 08:23:22;;;;;;;2.70;1.97;;;28.00;31.20;;;;;;20621;6879;120439;31
2022/06/21 08:25:48;;;;;;;2.73;2.10;;;27.80;31.00;;;;;;20414;6879;310967;31
2022/06/21 08:28:13;;;;;;;2.65;2.25;;;27.80;31.00;;;;;;20410;6879;285360;31
2022/06/21 08:30:45;;;;;;;2.20;2.10;;;27.90;31.00;;;;;;20385;6879;334892;31
2022/06/21 08:33:14;;;;;;;3.73;2.10;;;28.00;30.40;;;;;;20571;6887;117243;31
2022/06/21 08:35:39;;;;;;;2.43;2.00;;;27.70;31.50;;;;;;20385;6887;306804;31
2022/06/21 08:38:05;;;;;;;2.43;2.20;;;27.80;31.20;;;;;;20380;6887;310617;31
2022/06/21 08:40:30;;;;;;;2.87;2.57;;;27.80;30.90;;;;;;20595;6887;117595;31
2022/06/21 08:43:36;;;;;;;3.28;2.20;;;27.60;31.10;;;;;;19649;6887;283560;31
2022/06/21 08:46:14;;;;;;;3.73;1.90;;;27.60;30.90;;;;;;20596;6886;116666;31
2022/06/21 08:49:20;;;;;;;2.20;2.00;;;27.30;31.40;;;;;;20626;6883;117270;31
2022/06/21 08:52:15;;;;;;;3.47;2.00;;;27.00;31.90;;;;;;20609;6883;117731;31
2022/06/21 08:54:56;;;;;;;2.33;2.17;;;26.70;32.50;;;;;;20589;6884;117486;31
2022/06/21 08:57:51;;;;;;;2.20;2.00;;;26.50;32.60;;;;;;20595;6884;117499;31
2022/06/21 09:00:40;;;;;;;2.87;2.20;;;26.60;32.60;;;;;;20387;6884;311892;31
2022/06/21 09:03:25;;;;;;;2.93;2.40;;;27.00;33.10;;;;;;20269;6883;282647;31
2022/06/21 09:06:01;;;;;;;3.10;2.33;;;27.50;31.50;;;;;;20357;6884;280053;31
2022/06/21 09:08:46;;;;;;;2.60;2.40;;;27.90;32.60;;;;;;20584;6887;116860;31
2022/06/21 09:11:28;;;;;;;1.90;1.67;;;27.90;32.00;;;;;;20574;6887;117397;31
2022/06/21 09:14:08;;;;;;;2.07;1.90;;;27.90;32.30;;;;;;20586;6887;116296;31
2022/06/21 09:16:57;;;;;;;2.60;2.40;;;27.90;32.10;;;;;;20615;6887;117548;31
2022/06/21 09:19:39;;;;;;;4.03;1.87;;;27.90;31.70;;;;;;20598;6887;117813;31
2022/06/21 09:22:37;;;;;;;3.10;1.90;;;27.90;31.80;;;;;;20392;6884;314067;31
2022/06/21 09:25:22;;;;;;;2.17;2.08;;;28.30;31.50;;;;;;20428;6891;311305;31
2022/06/21 09:27:47;;;;;;;2.90;2.27;;;28.80;31.20;;;;;;20391;6891;280636;31
2022/06/21 09:30:16;;;;;;;2.10;1.87;;;29.20;30.50;;;;;;20595;6891;117899;31
2022/06/21 09:32:58;;;;;;;3.10;2.23;;;29.40;30.80;;;;;;20581;6891;117386;31
2022/06/21 09:35:28;;;;;;;2.20;2.03;;;29.30;31.00;;;;;;20570;6891;119217;31
2022/06/21 09:38:19;;;;;;;2.40;2.20;;;29.30;31.50;;;;;;20380;6891;310220;31
2022/06/21 09:41:05;;;;;;;2.60;2.40;;;29.40;29.70;;;;;;20414;6882;310055;31
2022/06/21 09:43:50;;;;;;;2.43;2.30;;;29.70;29.80;;;;;;20374;6882;313568;31
2022/06/21 09:46:55;;;;;;;2.93;2.10;;;30.00;30.20;;;;;;20202;6882;281522;31
2022/06/21 09:49:45;;;;;;;3.73;2.00;;;30.20;29.70;;;;;;20606;6881;122340;31
2022/06/21 09:52:36;;;;;;;2.57;2.13;;;29.90;29.80;;;;;;20407;6881;282319;31
2022/06/21 09:55:35;;;;;;;2.63;2.10;;;30.00;30.10;;;;;;20619;6881;117121;31
2022/06/21 09:58:01;;;;;;;2.13;2.03;;;29.80;30.20;;;;;;20619;6881;117501;31
2022/06/21 10:00:39;;;;;;;2.23;1.90;;;29.60;30.40;;;;;;20384;6881;280799;31
2022/06/21 10:03:35;;;;;;;2.50;2.10;;;29.80;30.20;;;;;;20411;6881;280270;31
2022/06/21 10:06:11;;;;;;;2.30;2.20;;;30.10;30.00;;;;;;20633;6881;117532;31
2022/06/21 10:08:56;;;;;;;2.23;2.13;;;30.10;30.10;;;;;;20620;6881;117042;31
2022/06/21 10:11:58;;;;;;;2.50;2.28;;;29.90;30.10;;;;;;20401;6881;301116;31
2022/06/21 10:14:40;;;;;;;2.57;2.20;;;30.00;29.80;;;;;;20407;6879;309805;31
2022/06/21 10:17:13;;;;;;;2.60;2.40;;;30.20;30.70;;;;;;20639;6880;117427;31
2022/06/21 10:19:51;;;;;;;3.10;2.43;;;30.10;30.50;;;;;;20417;6880;282513;31
2022/06/21 10:22:36;;;;;;;3.60;2.50;;;30.10;30.00;;;;;;20428;6880;308970;31
2022/06/21 10:25:11;;;;;;;2.10;2.00;;;30.30;29.90;;;;;;20009;6880;122430;31
2022/06/21 10:27:43;;;;;;;2.60;2.23;;;30.30;30.00;;;;;;20622;6880;117222;31
2022/06/21 10:30:29;;;;;;;2.37;2.20;;;30.10;30.10;;;;;;20622;6880;117422;31
2022/06/21 10:33:08;;;;;;;2.67;2.47;;;29.90;30.30;;;;;;20417;6881;338161;31
2022/06/21 10:35:39;;;;;;;5.17;2.37;;;30.10;30.90;;;;;;20628;6881;122063;31
2022/06/21 10:38:34;;;;;;;2.30;2.10;;;30.10;30.80;;;;;;20624;6881;117595;31
2022/06/21 10:41:09;;;;;;;2.30;2.20;;;30.10;31.00;;;;;;20421;6881;308767;31
2022/06/21 10:43:45;;;;;;;2.63;2.37;;;30.30;30.80;;;;;;20640;6881;116404;31
2022/06/21 10:46:20;;;;;;;2.57;2.37;;;30.40;30.30;;;;;;20488;6881;278662;31
2022/06/21 10:49:05;;;;;;;3.12;2.70;;;30.30;30.80;;;;;;20417;6881;309862;31
2022/06/21 10:51:57;;;;;;;2.83;2.42;;;30.40;30.40;;;;;;20392;6881;312461;31
2022/06/21 10:54:50;;;;;;;2.40;2.20;;;30.40;31.00;;;;;;20418;6881;281424;31
2022/06/21 10:57:55;;;;;;;2.57;2.40;;;30.50;31.00;;;;;;20408;6881;297444;31
2022/06/21 11:03:26;;;;;;;2.60;2.40;;;30.50;30.40;;;;;;20604;6881;118129;31
2022/06/21 11:06:11;;;;;;;2.57;2.47;;;30.30;30.80;;;;;;20628;6881;117360;31
2022/06/21 11:09:06;;;;;;;3.83;2.73;;;30.20;31.30;;;;;;20635;6881;117187;31
2022/06/21 11:11:42;;;;;;;2.47;2.37;;;30.00;31.70;;;;;;20343;6881;120126;31
2022/06/21 11:14:28;;;;;;;2.43;2.30;;;29.80;31.70;;;;;;20623;6881;118405;31
2022/06/21 11:16:59;;;;;;;3.33;2.10;;;29.60;32.00;;;;;;20631;6881;117278;31
2022/06/21 11:19:48;;;;;;;2.50;2.30;;;29.50;32.30;;;;;;20611;6881;145034;31
2022/06/21 11:22:20;;;;;;;3.57;2.57;;;29.30;33.70;;;;;;20618;6877;118217;31
2022/06/21 11:25:11;;;;;;;3.10;2.58;;;29.20;33.20;;;;;;20293;6875;339375;31
2022/06/21 11:27:51;;;;;;;3.20;2.50;;;29.50;33.70;;;;;;20657;6876;117290;31
2022/06/21 11:30:33;;;;;;;2.70;2.50;;;29.70;33.40;;;;;;20033;6876;119189;31
2022/06/21 11:33:20;;;;;;;2.70;2.50;;;29.90;33.30;;;;;;20275;6876;308714;31
2022/06/21 11:36:16;;;;;;;3.10;2.50;;;30.30;33.30;;;;;;20615;6876;121240;31
2022/06/21 11:39:05;;;;;;;3.37;2.20;;;30.50;33.00;;;;;;19377;7229;322112;31
2022/06/21 11:42:08;;;;;;;3.17;2.30;;;30.70;32.70;;;;;;19575;7229;119986;31
2022/06/21 11:44:56;;;;;;;2.80;2.70;;;30.70;32.50;;;;;;19932;6876;308823;31
2022/06/21 11:47:34;;;;;;;4.10;2.73;;;30.80;32.20;;;;;;20626;6876;117131;31
2022/06/21 11:50:00;;;;;;;2.70;2.50;;;30.80;32.50;;;;;;20423;6876;280712;31
2022/06/21 11:52:38;;;;;;;3.30;2.80;;;31.00;32.40;;;;;;20411;6876;311876;31
2022/06/21 11:55:27;;;;;;;3.03;2.70;;;31.30;32.30;;;;;;20443;6876;311664;31
2022/06/21 11:57:56;;;;;;;3.97;2.70;;;31.40;31.60;;;;;;20648;6876;117267;31
2022/06/21 12:00:35;;;;;;;2.93;2.53;;;31.20;32.00;;;;;;20664;6876;117134;31
2022/06/21 12:03:02;;;;;;;3.30;3.00;;;30.70;32.70;;;;;;20701;6877;67241;31
2022/06/21 12:05:56;;;;;;;3.10;2.90;;;30.40;33.30;;;;;;20665;6877;116665;31
2022/06/21 12:08:32;;;;;;;2.80;2.60;;;30.20;33.90;;;;;;20642;6877;117312;31
2022/06/21 12:11:03;;;;;;;3.20;2.90;;;30.20;34.30;;;;;;20609;6877;117710;31
2022/06/21 12:13:42;;;;;;;3.20;2.90;;;30.20;34.50;;;;;;20586;6877;118214;31
2022/06/21 12:16:24;;;;;;;3.03;2.83;;;30.20;34.60;;;;;;20622;6877;117089;31
2022/06/21 12:18:59;;;;;;;3.77;2.73;;;30.20;34.70;;;;;;20652;6877;117028;31
2022/06/21 12:21:26;;;;;;;4.15;2.75;;;30.20;34.90;;;;;;20084;6877;306932;31
2022/06/21 12:23:50;;;;;;;3.73;2.97;;;30.50;35.10;;;;;;20646;6877;117279;31
2022/06/21 12:26:16;;;;;;;4.70;3.40;;;30.70;34.70;;;;;;20639;6877;117611;31
2022/06/21 12:28:42;;;;;;;3.20;2.90;;;30.70;34.60;;;;;;20393;6877;335605;31
2022/06/21 12:31:24;;;;;;;3.20;3.00;;;30.80;34.90;;;;;;20631;6877;117287;31
2022/06/21 12:33:52;;;;;;;3.20;2.90;;;30.90;34.70;;;;;;20436;6877;344016;31
2022/06/21 12:36:22;;;;;;;3.70;3.23;;;31.00;34.90;;;;;;20442;6875;307756;31
2022/06/21 12:38:44;;;;;;;3.53;3.23;;;31.30;34.40;;;;;;20625;6876;119492;31
2022/06/21 12:41:20;;;;;;;3.75;3.35;;;31.20;34.10;;;;;;20405;6876;310777;31
2022/06/21 12:44:10;;;;;;;7.67;3.60;;;31.20;34.60;;;;;;20668;6876;116482;31
2022/06/21 12:46:39;;;;;;;3.50;3.20;;;31.10;34.30;;;;;;20462;6876;281640;31
2022/06/21 12:49:06;;;;;;;3.73;3.40;;;31.20;34.70;;;;;;20415;6876;310749;31
2022/06/21 12:51:43;;;;;;;3.80;3.40;;;31.50;34.10;;;;;;20425;6876;281829;31
2022/06/21 12:54:32;;;;;;;3.87;3.57;;;31.70;34.40;;;;;;20679;6876;117090;31
2022/06/21 12:57:30;;;;;;;3.53;3.33;;;31.60;34.00;;;;;;20622;6876;117032;31
2022/06/21 13:00:05;;;;;;;3.60;3.33;;;31.40;34.10;;;;;;20624;6876;119125;31
2022/06/21 13:02:50;;;;;;;3.97;3.62;;;31.20;34.60;;;;;;20413;6876;330622;31
2022/06/21 13:05:42;;;;;;;4.57;3.65;;;31.20;35.00;;;;;;19368;7229;356447;31
2022/06/21 13:08:14;;;;;;;3.87;3.65;;;31.50;34.50;;;;;;20094;6876;337971;31
2022/06/21 13:10:43;;;;;;;7.03;3.50;;;31.60;33.90;;;;;;20624;6876;119495;31
2022/06/21 13:13:17;;;;;;;3.70;3.40;;;31.40;34.20;;;;;;20435;6876;279435;31
2022/06/21 13:15:48;;;;;;;3.67;3.03;;;31.30;35.00;;;;;;20422;6877;310976;31
2022/06/21 13:18:15;;;;;;;5.50;3.43;;;31.40;35.40;;;;;;20645;6877;116634;31
2022/06/21 13:21:20;;;;;;;4.60;3.50;;;31.20;35.00;;;;;;20400;6877;279227;31
2022/06/21 13:24:12;;;;;;;6.37;3.60;;;31.20;35.20;;;;;;20635;6877;120160;31
2022/06/21 13:26:53;;;;;;;3.58;3.35;;;30.80;35.40;;;;;;20363;6877;311321;31
2022/06/21 13:29:22;;;;;;;8.27;3.53;;;30.80;35.60;;;;;;20619;6877;119430;31
2022/06/21 13:31:53;;;;;;;7.40;3.50;;;30.60;35.60;;;;;;20617;6877;117035;31